createdAt,value
2022-12-09T00:02:05.350Z,95925.00
2022-12-09T00:04:34.176Z,95922.81
2022-12-09T00:07:00.831Z,95923.63
2022-12-09T00:09:27.356Z,95920.34
2022-12-09T00:11:54.835Z,95923.75
2022-12-09T00:14:21.187Z,95916.28
2022-12-09T00:16:47.810Z,95913.81
2022-12-09T00:19:14.377Z,95913.56
2022-12-09T00:21:42.412Z,95908.78
2022-12-09T00:24:13.316Z,95903.34
2022-12-09T00:26:40.392Z,95910.41
2022-12-09T00:29:07.262Z,95906.22
2022-12-09T00:31:34.953Z,95905.66
2022-12-09T00:34:03.073Z,95902.78
2022-12-09T00:36:29.527Z,95902.16
2022-12-09T00:38:56.800Z,95908.66
2022-12-09T00:41:23.224Z,95894.53
2022-12-09T00:43:49.590Z,95903.22
2022-12-09T00:46:16.652Z,95897.31
2022-12-09T00:48:43.677Z,95901.81
2022-12-09T00:51:11.275Z,95887.66
2022-12-09T00:53:39.120Z,95891.97
2022-12-09T00:56:05.979Z,95898.34
2022-12-09T00:58:34.447Z,95896.84
2022-12-09T01:01:00.988Z,95902.00
2022-12-09T01:03:27.747Z,95903.22
2022-12-09T01:05:55.058Z,95907.84
2022-12-09T01:08:22.633Z,95894.97
2022-12-09T01:10:49.186Z,95896.00
2022-12-09T01:13:16.403Z,95890.78
2022-12-09T01:15:43.313Z,95894.97
2022-12-09T01:18:11.123Z,95889.75
2022-12-09T01:20:37.920Z,95902.97
2022-12-09T01:23:04.516Z,95901.81
2022-12-09T01:25:31.146Z,95896.06
2022-12-09T01:27:58.016Z,95895.00
2022-12-09T01:30:24.395Z,95896.56
2022-12-09T01:32:50.965Z,95895.19
2022-12-09T01:35:17.678Z,95900.09
2022-12-09T01:37:44.013Z,95896.13
2022-12-09T01:40:13.177Z,95887.88
2022-12-09T01:42:39.819Z,95890.09
2022-12-09T01:45:22.182Z,95890.03
2022-12-09T01:47:52.750Z,95886.63
2022-12-09T01:50:19.554Z,95879.66
2022-12-09T01:52:46.668Z,95883.88
2022-12-09T01:55:13.504Z,95878.72
2022-12-09T01:57:40.059Z,95882.91
2022-12-09T02:00:07.687Z,95872.81
2022-12-09T02:02:36.902Z,95874.06
2022-12-09T02:05:04.461Z,95869.34
2022-12-09T02:07:31.440Z,95867.84
2022-12-09T02:09:59.275Z,95870.09
2022-12-09T02:12:25.627Z,95868.75
2022-12-09T02:15:03.571Z,95869.28
2022-12-09T02:17:50.287Z,95869.22
2022-12-09T02:20:16.777Z,95859.56
2022-12-09T02:22:48.342Z,95856.31
2022-12-09T02:25:49.927Z,95849.78
2022-12-09T02:28:34.788Z,95854.88
2022-12-09T02:31:17.797Z,95856.56
2022-12-09T02:34:03.936Z,95850.59
2022-12-09T02:36:34.381Z,95844.44
2022-12-09T02:39:00.730Z,95852.03
2022-12-09T02:41:28.672Z,95846.88
2022-12-09T02:43:57.990Z,95843.47
2022-12-09T02:46:25.024Z,95847.25
2022-12-09T02:48:54.343Z,95849.38
2022-12-09T02:51:21.309Z,95848.44
2022-12-09T02:53:49.449Z,95844.91
2022-12-09T02:56:17.667Z,95851.75
2022-12-09T02:58:44.515Z,95838.81
2022-12-09T03:01:21.411Z,95831.13
2022-12-09T03:03:48.335Z,95834.31
2022-12-09T03:06:16.668Z,95841.63
2022-12-09T03:08:47.006Z,95838.56
2022-12-09T03:11:18.216Z,95827.50
2022-12-09T03:14:04.524Z,95822.09
2022-12-09T03:16:34.234Z,95816.88
2022-12-09T03:19:16.850Z,95826.63
2022-12-09T03:21:47.946Z,95827.13
2022-12-09T03:24:18.435Z,95828.09
2022-12-09T03:26:45.107Z,95820.47
2022-12-09T03:29:16.848Z,95825.50
2022-12-09T03:31:44.342Z,95822.66
2022-12-09T03:34:14.413Z,95811.97
2022-12-09T03:36:42.229Z,95818.38
2022-12-09T03:39:21.198Z,95806.44
2022-12-09T03:41:53.447Z,95807.50
2022-12-09T03:44:26.105Z,95813.28
2022-12-09T03:46:52.777Z,95800.38
2022-12-09T03:49:22.748Z,95803.28
2022-12-09T03:51:57.375Z,95796.97
2022-12-09T03:54:28.498Z,95807.50
2022-12-09T03:56:56.933Z,95803.28
2022-12-09T03:59:34.120Z,95796.31
2022-12-09T04:02:01.208Z,95799.06
2022-12-09T04:04:29.832Z,95803.03
2022-12-09T04:06:56.262Z,95801.22
2022-12-09T04:09:23.136Z,95798.69
2022-12-09T04:11:49.906Z,95799.75
2022-12-09T04:14:16.594Z,95796.69
2022-12-09T04:16:43.664Z,95791.22
2022-12-09T04:19:10.317Z,95794.66
2022-12-09T04:21:36.773Z,95795.72
2022-12-09T04:24:03.260Z,95791.03
2022-12-09T04:26:29.791Z,95787.09
2022-12-09T04:28:56.307Z,95789.38
2022-12-09T04:31:22.963Z,95791.22
2022-12-09T04:33:49.526Z,95794.34
2022-12-09T04:36:18.029Z,95793.41
2022-12-09T04:38:47.204Z,95796.06
2022-12-09T04:41:14.556Z,95801.63
2022-12-09T04:43:41.069Z,95802.56
2022-12-09T04:46:09.650Z,95803.28
2022-12-09T04:48:38.144Z,95798.94
2022-12-09T04:51:04.956Z,95803.72
2022-12-09T04:53:31.669Z,95793.09
2022-12-09T04:56:09.237Z,95800.22
2022-12-09T04:58:36.100Z,95795.25
2022-12-09T05:01:09.862Z,95789.03
2022-12-09T05:03:36.786Z,95789.91
2022-12-09T05:06:07.103Z,95782.94
2022-12-09T05:08:34.205Z,95779.00
2022-12-09T05:11:00.904Z,95783.91
2022-12-09T05:13:28.055Z,95780.78
2022-12-09T05:15:55.283Z,95777.06
2022-12-09T05:18:21.906Z,95771.78
2022-12-09T05:20:48.402Z,95778.31
2022-12-09T05:23:14.966Z,95771.13
2022-12-09T05:25:41.644Z,95768.97
2022-12-09T05:28:09.505Z,95769.75
2022-12-09T05:30:36.970Z,95762.25
2022-12-09T05:33:05.134Z,95764.41
2022-12-09T05:35:31.701Z,95759.41
2022-12-09T05:37:58.405Z,95759.13
2022-12-09T05:40:24.895Z,95747.19
2022-12-09T05:42:51.315Z,95748.56
2022-12-09T05:45:17.990Z,95744.75
2022-12-09T05:47:44.855Z,95747.47
2022-12-09T05:50:12.107Z,95744.78
2022-12-09T05:52:39.734Z,95742.06
2022-12-09T05:55:18.360Z,95739.06
2022-12-09T05:57:44.822Z,95732.81
2022-12-09T06:00:11.749Z,95734.31
2022-12-09T06:02:38.452Z,95730.13
2022-12-09T06:05:05.222Z,95738.25
2022-12-09T06:07:32.079Z,95742.16
2022-12-09T06:09:58.945Z,95735.78
2022-12-09T06:12:25.799Z,95731.31
2022-12-09T06:14:52.701Z,95729.81
2022-12-09T06:17:19.372Z,95728.59
2022-12-09T06:19:46.145Z,95719.34
2022-12-09T06:22:12.771Z,95719.34
2022-12-09T06:24:39.407Z,95714.97
2022-12-09T06:27:05.883Z,95717.25
2022-12-09T06:29:32.597Z,95712.22
2022-12-09T06:31:59.495Z,95702.03
2022-12-09T06:34:26.248Z,95707.72
2022-12-09T06:36:53.109Z,95700.28
2022-12-09T06:39:19.569Z,95699.63
2022-12-09T06:41:46.162Z,95699.22
2022-12-09T06:44:15.820Z,95691.88
2022-12-09T06:46:48.072Z,95691.47
2022-12-09T06:49:14.591Z,95691.47
2022-12-09T06:51:41.630Z,95700.44
2022-12-09T06:54:09.768Z,95692.44
2022-12-09T06:56:36.744Z,95696.50
2022-12-09T06:59:05.906Z,95703.97
2022-12-09T07:01:32.416Z,95706.16
2022-12-09T07:03:59.404Z,95709.31
2022-12-09T07:06:29.116Z,95708.34
2022-12-09T07:08:57.504Z,95709.19
2022-12-09T07:11:24.608Z,95704.81
2022-12-09T07:13:51.687Z,95703.19
2022-12-09T07:16:18.529Z,95703.59
2022-12-09T07:18:45.490Z,95705.66
2022-12-09T07:21:16.390Z,95698.56
2022-12-09T07:23:51.181Z,95718.84
2022-12-09T07:26:18.355Z,95715.72
2022-12-09T07:28:47.358Z,95708.66
2022-12-09T07:31:32.572Z,95712.59
2022-12-09T07:34:00.068Z,95715.63
2022-12-09T07:36:27.988Z,95715.63
2022-12-09T07:38:58.740Z,95711.38
2022-12-09T07:41:25.380Z,95704.03
2022-12-09T07:43:52.905Z,95705.69
2022-12-09T07:46:20.810Z,95717.38
2022-12-09T07:48:48.317Z,95716.53
2022-12-09T07:51:15.713Z,95716.53
2022-12-09T07:53:43.205Z,95699.44
2022-12-09T07:56:14.816Z,95709.50
2022-12-09T07:58:41.747Z,95709.50
2022-12-09T08:01:09.003Z,95713.28
2022-12-09T08:03:36.038Z,95699.97
2022-12-09T08:06:03.819Z,95704.06
2022-12-09T08:08:33.872Z,95706.78
2022-12-09T08:11:08.548Z,95696.59
2022-12-09T08:13:36.673Z,95700.13
2022-12-09T08:16:07.771Z,95693.72
2022-12-09T08:18:36.608Z,95692.88
2022-12-09T08:21:05.341Z,95693.53
2022-12-09T08:23:32.285Z,95689.41
2022-12-09T08:25:59.415Z,95685.66
2022-12-09T08:28:26.382Z,95679.13
2022-12-09T08:30:54.014Z,95683.44
2022-12-09T08:33:20.741Z,95682.41
2022-12-09T08:35:47.556Z,95679.53
2022-12-09T08:38:14.314Z,95673.72
2022-12-09T08:40:40.853Z,95667.34
2022-12-09T08:43:08.919Z,95670.53
2022-12-09T08:45:37.090Z,95667.59
2022-12-09T08:48:03.788Z,95656.00
2022-12-09T08:50:31.038Z,95662.72
2022-12-09T08:52:57.476Z,95653.53
2022-12-09T08:55:24.045Z,95655.75
2022-12-09T08:57:50.694Z,95650.38
2022-12-09T09:00:18.221Z,95640.16
2022-12-09T09:02:45.033Z,95657.00
2022-12-09T09:05:15.609Z,95638.38
2022-12-09T09:07:43.790Z,95635.81
2022-12-09T09:10:11.747Z,95635.78
2022-12-09T09:12:43.247Z,95634.94
2022-12-09T09:15:10.931Z,95626.69
2022-12-09T09:17:37.911Z,95620.34
2022-12-09T09:20:06.678Z,95625.19
2022-12-09T09:22:34.609Z,95628.16
2022-12-09T09:25:01.041Z,95631.44
2022-12-09T09:27:27.712Z,95627.50
2022-12-09T09:29:54.301Z,95626.94
2022-12-09T09:32:28.917Z,95621.09
2022-12-09T09:34:55.300Z,95607.16
2022-12-09T09:37:22.001Z,95613.69
2022-12-09T09:39:48.611Z,95607.59
2022-12-09T09:42:17.249Z,95604.63
2022-12-09T09:44:45.665Z,95614.50
2022-12-09T09:47:18.050Z,95603.25
2022-12-09T09:49:53.879Z,95599.00
2022-12-09T09:52:22.872Z,95601.00
2022-12-09T09:54:50.113Z,95594.13
2022-12-09T09:57:18.891Z,95593.34
2022-12-09T10:00:08.703Z,95573.38
2022-12-09T10:02:49.322Z,95572.53
2022-12-09T10:05:29.273Z,95570.13
2022-12-09T10:08:19.031Z,95569.31
2022-12-09T10:11:07.981Z,95578.13
2022-12-09T10:13:35.344Z,95573.63
2022-12-09T10:16:11.384Z,95569.22
2022-12-09T10:18:47.311Z,95565.63
2022-12-09T10:21:15.711Z,95576.69
2022-12-09T10:23:42.828Z,95573.41
2022-12-09T10:26:15.842Z,95571.09
2022-12-09T10:28:45.062Z,95567.53
2022-12-09T10:31:11.997Z,95565.63
2022-12-09T10:33:40.046Z,95565.78
2022-12-09T10:36:19.525Z,95564.34
2022-12-09T10:38:49.442Z,95561.25
2022-12-09T10:42:10.575Z,95559.75
2022-12-09T10:44:37.660Z,95553.94
2022-12-09T10:47:05.482Z,95562.28
2022-12-09T10:49:34.839Z,95549.75
2022-12-09T10:52:02.348Z,95551.78
2022-12-09T10:54:37.212Z,95555.34
2022-12-09T10:57:09.698Z,95553.94
2022-12-09T10:59:36.784Z,95550.25
2022-12-09T11:02:19.019Z,95551.00
2022-12-09T11:04:50.223Z,95544.56
2022-12-09T11:07:19.070Z,95541.66
2022-12-09T11:09:51.043Z,95546.75
2022-12-09T11:12:36.684Z,95535.13
2022-12-09T11:15:08.335Z,95532.16
2022-12-09T11:17:55.861Z,95524.53
2022-12-09T11:20:25.719Z,95530.75
2022-12-09T11:23:19.076Z,95540.00
2022-12-09T11:25:54.803Z,95527.41
2022-12-09T11:28:39.323Z,95527.31
2022-12-09T11:31:29.105Z,95519.06
2022-12-09T11:34:00.255Z,95519.84
2022-12-09T11:36:45.450Z,95514.56
2022-12-09T11:39:26.354Z,95510.47
2022-12-09T11:42:17.545Z,95507.00
2022-12-09T11:45:04.357Z,95495.66
2022-12-09T11:48:04.644Z,95484.63
2022-12-09T11:50:25.037Z,95494.03
2022-12-09T11:53:12.241Z,95485.13
2022-12-09T11:55:43.604Z,95474.91
2022-12-09T11:58:15.081Z,95475.63
2022-12-09T12:01:01.835Z,95473.91
2022-12-09T12:03:39.675Z,95466.75
2022-12-09T12:06:14.355Z,95471.88
2022-12-09T12:08:43.583Z,95480.56
2022-12-09T12:11:15.855Z,95465.22
2022-12-09T12:13:45.192Z,95471.03
2022-12-09T12:16:15.448Z,95463.75
2022-12-09T12:18:48.405Z,95462.44
2022-12-09T12:21:33.395Z,95465.50
2022-12-09T12:24:11.799Z,95467.13
2022-12-09T12:26:45.489Z,95468.78
2022-12-09T12:29:14.778Z,95468.94
2022-12-09T12:31:58.387Z,95462.25
2022-12-09T12:34:45.643Z,95462.69
2022-12-09T12:37:44.495Z,95461.31
2022-12-09T12:40:27.203Z,95461.66
2022-12-09T12:43:12.381Z,95459.34
2022-12-09T12:46:06.709Z,95452.06
2022-12-09T12:48:43.138Z,95445.41
2022-12-09T12:51:15.937Z,95438.63
2022-12-09T12:53:48.750Z,95438.91
2022-12-09T12:56:16.462Z,95432.53
2022-12-09T12:58:46.162Z,95433.41
2022-12-09T13:01:22.800Z,95432.22
2022-12-09T13:04:12.237Z,95442.53
2022-12-09T13:06:38.525Z,95433.25
2022-12-09T13:09:09.664Z,95431.56
2022-12-09T13:11:39.482Z,95420.50
2022-12-09T13:14:16.030Z,95420.34
2022-12-09T13:16:43.514Z,95420.28
2022-12-09T13:19:34.918Z,95413.25
2022-12-09T13:22:03.258Z,95413.84
2022-12-09T13:24:29.613Z,95404.13
2022-12-09T13:27:00.135Z,95410.91
2022-12-09T13:29:29.940Z,95409.34
2022-12-09T13:32:01.393Z,95402.50
2022-12-09T13:34:32.260Z,95410.72
2022-12-09T13:36:58.670Z,95418.81
2022-12-09T13:39:42.822Z,95419.16
2022-12-09T13:42:47.024Z,95412.56
2022-12-09T13:45:16.629Z,95410.38
2022-12-09T13:47:42.982Z,95413.00
2022-12-09T13:50:31.018Z,95406.50
2022-12-09T13:53:01.943Z,95410.22
2022-12-09T13:55:28.266Z,95416.38
2022-12-09T13:58:17.485Z,95411.44
2022-12-09T14:00:44.700Z,95409.38
2022-12-09T14:03:25.611Z,95412.53
2022-12-09T14:05:53.497Z,95424.66
2022-12-09T14:08:22.448Z,95427.94
2022-12-09T14:10:50.584Z,95418.69
2022-12-09T14:13:29.277Z,95423.28
2022-12-09T14:16:34.908Z,95421.28
2022-12-09T14:19:20.285Z,95424.50
2022-12-09T14:22:06.612Z,95420.34
2022-12-09T14:24:35.415Z,95418.00
2022-12-09T14:27:04.839Z,95419.94
2022-12-09T14:29:44.125Z,95421.00
2022-12-09T14:32:36.799Z,95425.13
2022-12-09T14:35:06.793Z,95435.53
2022-12-09T14:37:45.746Z,95438.81
2022-12-09T14:40:15.014Z,95431.53
2022-12-09T14:42:44.732Z,95437.53
2022-12-09T14:45:21.095Z,95428.38
2022-12-09T14:47:49.942Z,95427.88
2022-12-09T14:50:18.367Z,95437.81
2022-12-09T14:52:51.211Z,95443.19
2022-12-09T14:55:18.481Z,95444.91
2022-12-09T14:57:47.773Z,95444.81
2022-12-09T15:00:33.567Z,95437.97
2022-12-09T15:06:05.749Z,95437.81
2022-12-09T15:08:39.647Z,95430.81
2022-12-09T15:11:17.180Z,95424.97
2022-12-09T15:13:47.475Z,95429.78
2022-12-09T15:16:25.057Z,95436.06
2022-12-09T15:18:54.319Z,95439.56
2022-12-09T15:21:30.823Z,95429.50
2022-12-09T15:23:59.267Z,95432.03
2022-12-09T15:26:27.133Z,95425.44
2022-12-09T15:28:56.128Z,95433.44
2022-12-09T15:31:28.884Z,95434.19
2022-12-09T15:33:56.358Z,95434.25
2022-12-09T15:36:54.939Z,95426.41
2022-12-09T15:39:29.696Z,95435.16
2022-12-09T15:42:07.836Z,95442.31
2022-12-09T15:44:37.160Z,95447.19
2022-12-09T15:47:10.332Z,95450.28
2022-12-09T15:49:43.192Z,95444.00
2022-12-09T15:52:10.924Z,95445.31
2022-12-09T15:54:38.606Z,95449.69
2022-12-09T15:57:07.434Z,95447.19
2022-12-09T15:59:36.538Z,95444.19
2022-12-09T16:02:04.685Z,95441.09
2022-12-09T16:04:35.250Z,95431.38
2022-12-09T16:07:12.804Z,95427.25
2022-12-09T16:09:39.454Z,95432.22
2022-12-09T16:12:23.526Z,95431.00
2022-12-09T16:14:49.887Z,95423.25
2022-12-09T16:17:24.058Z,95422.69
2022-12-09T16:19:50.712Z,95419.00
2022-12-09T16:22:21.598Z,95426.13
2022-12-09T16:25:13.519Z,95435.50
2022-12-09T16:27:43.012Z,95436.97
2022-12-09T16:30:14.123Z,95435.56
2022-12-09T16:32:46.528Z,95436.84
2022-12-09T16:35:18.904Z,95430.41
2022-12-09T16:37:57.301Z,95423.91
2022-12-09T16:40:23.702Z,95427.69
2022-12-09T16:42:51.444Z,95423.84
2022-12-09T16:45:40.616Z,95429.22
2022-12-09T16:48:08.749Z,95429.38
2022-12-09T16:50:39.773Z,95434.03
2022-12-09T16:53:12.400Z,95430.63
2022-12-09T16:55:39.095Z,95431.81
2022-12-09T16:58:05.651Z,95435.16
2022-12-09T17:00:37.863Z,95440.75
2022-12-09T17:03:10.599Z,95435.75
2022-12-09T17:05:36.951Z,95437.38
2022-12-09T17:08:03.551Z,95435.66
2022-12-09T17:10:29.953Z,95441.09
2022-12-09T17:12:58.322Z,95443.59
2022-12-09T17:15:24.803Z,95437.31
2022-12-09T17:17:51.228Z,95441.22
2022-12-09T17:20:17.724Z,95448.03
2022-12-09T17:22:44.314Z,95445.16
2022-12-09T17:25:10.797Z,95458.81
2022-12-09T17:27:39.186Z,95451.78
2022-12-09T17:30:05.762Z,95460.38
2022-12-09T17:32:38.618Z,95460.75
2022-12-09T17:35:12.139Z,95460.00
2022-12-09T17:37:39.026Z,95459.28
2022-12-09T17:40:06.854Z,95461.69
2022-12-09T17:42:33.517Z,95464.66
2022-12-09T17:45:00.972Z,95464.22
2022-12-09T17:47:28.554Z,95465.09
2022-12-09T17:49:55.994Z,95478.78
2022-12-09T17:52:22.728Z,95474.94
2022-12-09T17:54:49.253Z,95472.44
2022-12-09T17:57:15.620Z,95475.66
2022-12-09T17:59:41.951Z,95474.34
2022-12-09T18:02:15.537Z,95490.38
2022-12-09T18:04:48.852Z,95490.22
2022-12-09T18:07:24.492Z,95491.63
2022-12-09T18:09:54.750Z,95488.91
2022-12-09T18:12:21.940Z,95498.09
2022-12-09T18:14:48.526Z,95502.59
2022-12-09T18:17:20.283Z,95509.56
2022-12-09T18:19:46.993Z,95500.88
2022-12-09T18:22:13.321Z,95503.84
2022-12-09T18:24:39.684Z,95502.72
2022-12-09T18:27:07.123Z,95511.47
2022-12-09T18:29:33.660Z,95513.75
2022-12-09T18:32:00.388Z,95515.66
2022-12-09T18:34:28.023Z,95521.59
2022-12-09T18:37:00.310Z,95518.94
2022-12-09T18:39:27.111Z,95519.91
2022-12-09T18:41:53.902Z,95516.34
2022-12-09T18:44:20.398Z,95518.25
2022-12-09T18:46:48.699Z,95520.41
2022-12-09T18:49:22.361Z,95523.44
2022-12-09T18:51:49.511Z,95518.63
2022-12-09T18:54:20.590Z,95531.56
2022-12-09T18:56:47.081Z,95527.13
2022-12-09T18:59:19.741Z,95520.84
2022-12-09T19:01:47.288Z,95522.09
2022-12-09T19:04:15.328Z,95521.88
2022-12-09T19:06:43.043Z,95522.09
2022-12-09T19:09:17.744Z,95518.03
2022-12-09T19:11:46.152Z,95516.69
2022-12-09T19:14:13.992Z,95520.56
2022-12-09T19:16:43.003Z,95518.78
2022-12-09T19:19:10.987Z,95520.16
2022-12-09T19:21:40.035Z,95526.03
2022-12-09T19:24:07.872Z,95520.63
2022-12-09T19:26:35.322Z,95527.69
2022-12-09T19:29:03.000Z,95526.63
2022-12-09T19:31:33.607Z,95533.19
2022-12-09T19:34:13.395Z,95525.84
2022-12-09T19:36:39.795Z,95521.06
2022-12-09T19:39:08.203Z,95529.41
2022-12-09T19:41:43.158Z,95543.69
2022-12-09T19:44:11.190Z,95545.91
2022-12-09T19:46:38.511Z,95546.22
2022-12-09T19:49:05.129Z,95551.72
2022-12-09T19:51:31.491Z,95544.00
2022-12-09T19:53:59.047Z,95549.00
2022-12-09T19:56:25.501Z,95558.53
2022-12-09T19:58:56.278Z,95548.19
2022-12-09T20:01:27.588Z,95552.53
2022-12-09T20:04:08.864Z,95564.88
2022-12-09T20:06:46.114Z,95560.97
2022-12-09T20:09:14.157Z,95567.78
2022-12-09T20:11:41.678Z,95561.88
2022-12-09T20:14:10.479Z,95568.25
2022-12-09T20:16:40.146Z,95562.97
2022-12-09T20:19:07.808Z,95564.75
2022-12-09T20:21:35.281Z,95571.41
2022-12-09T20:24:07.062Z,95573.31
2022-12-09T20:26:35.750Z,95580.84
2022-12-09T20:29:03.344Z,95579.22
2022-12-09T20:31:30.687Z,95575.72
2022-12-09T20:34:06.939Z,95577.81
2022-12-09T20:36:35.164Z,95578.19
2022-12-09T20:39:04.002Z,95575.47
2022-12-09T20:41:30.362Z,95588.00
2022-12-09T20:44:05.033Z,95584.44
2022-12-09T20:46:32.347Z,95588.50
2022-12-09T20:49:01.754Z,95584.72
2022-12-09T20:51:31.175Z,95583.47
2022-12-09T20:53:58.160Z,95578.41
2022-12-09T20:56:25.904Z,95577.03
2022-12-09T20:58:53.614Z,95575.59
2022-12-09T21:01:23.045Z,95577.81
2022-12-09T21:03:50.235Z,95576.59
2022-12-09T21:06:17.567Z,95575.69
2022-12-09T21:08:44.375Z,95577.88
2022-12-09T21:11:15.069Z,95580.84
2022-12-09T21:13:42.735Z,95581.00
2022-12-09T21:16:12.504Z,95581.38
2022-12-09T21:18:38.933Z,95580.63
2022-12-09T21:21:06.104Z,95583.06
2022-12-09T21:23:34.969Z,95585.59
2022-12-09T21:26:05.937Z,95585.47
2022-12-09T21:28:32.542Z,95581.81
2022-12-09T21:30:59.024Z,95577.97
2022-12-09T21:33:27.388Z,95583.13
2022-12-09T21:35:53.701Z,95577.06
2022-12-09T21:38:20.079Z,95584.81
2022-12-09T21:40:46.480Z,95579.22
2022-12-09T21:43:17.894Z,95584.16
2022-12-09T21:45:44.229Z,95599.69
2022-12-09T21:48:10.578Z,95590.66
2022-12-09T21:50:39.092Z,95597.28
2022-12-09T21:53:05.485Z,95592.59
2022-12-09T21:55:39.398Z,95592.00
2022-12-09T21:58:05.766Z,95587.78
2022-12-09T22:00:34.512Z,95585.47
2022-12-09T22:03:01.244Z,95590.97
2022-12-09T22:05:28.740Z,95585.41
2022-12-09T22:07:55.452Z,95592.00
2022-12-09T22:10:21.796Z,95593.09
2022-12-09T22:12:49.433Z,95595.53
2022-12-09T22:15:15.913Z,95594.78
2022-12-09T22:17:44.291Z,95599.94
2022-12-09T22:20:54.163Z,95597.41
2022-12-09T22:23:00.073Z,95596.47
2022-12-09T22:25:26.389Z,95607.19
2022-12-09T22:27:52.702Z,95606.88
2022-12-09T22:30:19.129Z,95611.53
2022-12-09T22:32:50.570Z,95617.00
2022-12-09T22:35:17.345Z,95626.00
2022-12-09T22:37:44.759Z,95629.00
2022-12-09T22:40:11.342Z,95629.00
2022-12-09T22:42:37.657Z,95625.06
2022-12-09T22:45:05.122Z,95629.13
2022-12-09T22:47:31.442Z,95638.03
2022-12-09T22:49:57.847Z,95635.44
2022-12-09T22:52:24.218Z,95636.75
2022-12-09T22:54:50.535Z,95644.81
2022-12-09T22:57:16.872Z,95641.25
2022-12-09T22:59:43.362Z,95632.06
2022-12-09T23:02:09.858Z,95622.66
2022-12-09T23:04:36.446Z,95636.78
2022-12-09T23:07:03.106Z,95630.72
2022-12-09T23:09:29.424Z,95638.88
2022-12-09T23:11:56.022Z,95638.28
2022-12-09T23:14:22.428Z,95632.81
2022-12-09T23:16:48.793Z,95627.53
2022-12-09T23:19:15.384Z,95631.97
2022-12-09T23:21:43.133Z,95631.13
2022-12-09T23:24:25.115Z,95627.53
2022-12-09T23:26:53.665Z,95622.00
2022-12-09T23:29:24.371Z,95617.34
2022-12-09T23:31:50.949Z,95625.47
2022-12-09T23:34:19.468Z,95621.94
2022-12-09T23:36:45.887Z,95625.22
2022-12-09T23:39:21.425Z,95618.25
2022-12-09T23:41:48.131Z,95625.00
2022-12-09T23:44:16.172Z,95623.41
2022-12-09T23:46:42.924Z,95615.94
2022-12-09T23:49:09.723Z,95612.00
2022-12-09T23:51:37.843Z,95630.13
2022-12-09T23:54:05.734Z,95627.81
2022-12-09T23:56:34.816Z,95626.88
2022-12-09T23:59:02.625Z,95630.31
